Time;durP1;ratioP1;P1;durP2;ratioP2;P2;SDS_P1;SDS_P2;PMS_P1;PMS_P2;Temp;Humidity;BMP_temperature;BMP_pressure;BME280_temperature;BME280_humidity;BME280_pressure;Samples;Min_cycle;Max_cycle;Signal;HPM_P1;HPM_P2
2023/07/11 00:00:47;;;;;;;4.10;3.70;;;;;;;21.73;95.96;100453.91;5059036;28;20232;-73
2023/07/11 00:03:13;;;;;;;5.37;4.17;;;;;;;21.73;95.00;100448.63;5060788;28;20213;-73
2023/07/11 00:05:38;;;;;;;4.57;4.17;;;;;;;21.75;96.05;100445.91;5065195;28;20280;-73
2023/07/11 00:08:05;;;;;;;4.63;4.17;;;;;;;21.73;96.93;100438.09;5062104;28;20217;-73
2023/07/11 00:10:30;;;;;;;5.83;4.80;;;;;;;21.70;97.58;100437.41;5059768;28;20186;-73
2023/07/11 00:12:55;;;;;;;4.90;4.37;;;;;;;21.65;96.97;100436.81;5061831;28;20219;-73
2023/07/11 00:15:21;;;;;;;4.83;4.43;;;;;;;21.60;96.79;100442.31;5059026;28;20818;-73
2023/07/11 00:17:48;;;;;;;6.00;5.13;;;;;;;21.54;96.29;100432.94;5059887;28;20227;-73
2023/07/11 00:20:15;;;;;;;5.53;4.47;;;;;;;21.50;96.45;100436.66;5066002;28;20178;-73
2023/07/11 00:22:42;;;;;;;5.13;4.63;;;;;;;21.44;96.75;100437.81;5064224;28;20197;-73
2023/07/11 00:25:08;;;;;;;5.10;4.40;;;;;;;21.43;97.12;100437.88;5066948;28;20554;-73
2023/07/11 00:27:33;;;;;;;4.87;4.47;;;;;;;21.40;97.67;100433.66;5060236;28;20205;-73
2023/07/11 00:29:59;;;;;;;5.13;4.67;;;;;;;21.36;98.64;100436.53;5067864;28;20188;-73
2023/07/11 00:32:24;;;;;;;4.93;4.50;;;;;;;21.36;99.24;100434.72;5061724;28;20182;-73
2023/07/11 00:34:50;;;;;;;5.43;4.43;;;;;;;21.34;100.00;100433.13;5058965;28;20186;-72
2023/07/11 00:37:15;;;;;;;7.17;4.93;;;;;;;21.30;99.68;100433.25;5065282;28;20196;-73
2023/07/11 00:39:41;;;;;;;6.17;4.90;;;;;;;21.25;99.71;100426.53;5065140;28;20189;-73
2023/07/11 00:42:08;;;;;;;5.43;4.30;;;;;;;21.21;99.64;100433.75;5064381;28;20272;-73
2023/07/11 00:44:57;;;;;;;7.33;5.20;;;;;;;21.16;99.70;100428.72;5061230;28;20228;-73
2023/07/11 00:47:25;;;;;;;5.40;4.60;;;;;;;21.15;100.00;100431.41;5057261;28;20607;-73
2023/07/11 00:49:55;;;;;;;6.33;5.10;;;;;;;21.11;100.00;100430.72;5061938;28;20192;-73
2023/07/11 00:52:22;;;;;;;9.20;5.20;;;;;;;21.09;100.00;100432.59;5055016;28;21009;-74
2023/07/11 00:54:52;;;;;;;8.17;5.27;;;;;;;21.05;100.00;100430.19;5063919;28;20594;-72
2023/07/11 00:57:18;;;;;;;7.90;4.83;;;;;;;21.00;100.00;100438.31;5063771;28;20243;-73
2023/07/11 00:59:44;;;;;;;8.37;5.33;;;;;;;20.96;100.00;100434.97;5063113;28;20189;-73
2023/07/11 01:02:14;;;;;;;9.33;5.23;;;;;;;20.94;100.00;100433.34;5060505;28;20222;-73
2023/07/11 01:04:40;;;;;;;5.07;4.57;;;;;;;20.90;100.00;100429.16;5064225;28;20205;-73
2023/07/11 01:07:08;;;;;;;6.80;5.43;;;;;;;20.86;100.00;100431.97;5065263;28;20549;-73
2023/07/11 01:09:34;;;;;;;7.17;4.90;;;;;;;20.86;100.00;100417.97;5060842;28;20230;-73
2023/07/11 01:12:02;;;;;;;6.27;5.30;;;;;;;20.85;100.00;100421.50;5069989;28;20197;-73
2023/07/11 01:14:28;;;;;;;9.73;5.43;;;;;;;20.80;100.00;100418.25;5062930;28;20205;-73
2023/07/11 01:16:54;;;;;;;6.00;4.90;;;;;;;20.76;100.00;100414.09;5063151;28;20206;-73
2023/07/11 01:19:21;;;;;;;5.73;4.80;;;;;;;20.73;100.00;100419.47;5064699;28;20209;-73
2023/07/11 01:21:46;;;;;;;9.57;5.53;;;;;;;20.72;100.00;100413.38;5079230;28;20285;-73
2023/07/11 01:24:12;;;;;;;6.73;5.10;;;;;;;20.72;100.00;100413.38;5064744;28;20304;-73
2023/07/11 01:26:39;;;;;;;7.40;4.67;;;;;;;20.69;100.00;100409.09;5063079;28;20288;-72
2023/07/11 01:29:05;;;;;;;6.53;5.00;;;;;;;20.68;100.00;100423.16;5064017;28;20928;-73
2023/07/11 01:31:33;;;;;;;11.13;5.20;;;;;;;20.67;100.00;100415.38;5059774;28;20687;-73
2023/07/11 01:34:00;;;;;;;9.57;4.90;;;;;;;20.66;100.00;100421.56;5063914;28;20182;-74
2023/07/11 01:36:26;;;;;;;7.37;4.60;;;;;;;20.64;100.00;100413.75;5059687;28;20179;-73
2023/07/11 01:38:51;;;;;;;6.20;4.70;;;;;;;20.65;100.00;100415.41;5060414;28;20225;-72
2023/07/11 01:41:17;;;;;;;6.97;4.53;;;;;;;20.60;100.00;100416.56;5058929;28;20671;-73
2023/07/11 01:43:42;;;;;;;4.67;4.17;;;;;;;20.56;100.00;100413.25;5063586;28;20251;-73
2023/07/11 01:46:07;;;;;;;6.27;4.33;;;;;;;20.51;100.00;100405.59;5064454;28;20197;-74
2023/07/11 01:48:33;;;;;;;5.53;4.57;;;;;;;20.48;100.00;100408.38;5061254;28;20214;-73
2023/07/11 01:50:58;;;;;;;7.50;4.70;;;;;;;20.47;100.00;100404.03;5061760;28;20204;-73
2023/07/11 01:53:23;;;;;;;5.90;4.50;;;;;;;20.46;100.00;100399.69;5060373;28;20170;-73
2023/07/11 01:56:02;;;;;;;6.17;5.10;;;;;;;20.40;100.00;100392.97;5063062;28;20196;-74
2023/07/11 01:58:27;;;;;;;9.27;4.90;;;;;;;20.36;100.00;100390.56;5067374;28;20677;-73
2023/07/11 02:00:55;;;;;;;6.70;4.83;;;;;;;20.34;100.00;100390.66;5064591;28;20180;-73
2023/07/11 02:03:20;;;;;;;5.00;4.47;;;;;;;20.34;100.00;100380.16;5065684;28;20216;-73
2023/07/11 02:05:45;;;;;;;6.40;4.70;;;;;;;20.36;100.00;100380.91;5060164;28;20188;-73
2023/07/11 02:08:11;;;;;;;4.70;4.30;;;;;;;20.39;100.00;100372.88;5066954;28;20737;-73
2023/07/11 02:10:36;;;;;;;4.80;4.40;;;;;;;20.43;100.00;100375.34;5065372;28;20181;-73
2023/07/11 02:13:01;;;;;;;4.33;3.90;;;;;;;20.44;100.00;100371.81;5061398;28;20269;-73
2023/07/11 02:15:27;;;;;;;4.47;4.07;;;;;;;20.45;100.00;100370.88;5059918;28;20197;-73
2023/07/11 02:17:52;;;;;;;5.43;4.70;;;;;;;20.44;100.00;100364.75;5062701;28;20220;-74
2023/07/11 02:20:18;;;;;;;5.90;4.60;;;;;;;20.42;100.00;100366.59;5060418;28;20228;-73
2023/07/11 02:22:43;;;;;;;4.90;4.53;;;;;;;20.37;100.00;100372.09;5055800;28;20200;-73
2023/07/11 02:25:08;;;;;;;5.73;4.33;;;;;;;20.35;100.00;100370.47;5058388;28;20544;-73
2023/07/11 02:27:34;;;;;;;8.23;4.70;;;;;;;20.30;100.00;100365.44;5058058;28;20214;-73
2023/07/11 02:29:59;;;;;;;4.73;4.33;;;;;;;20.27;100.00;100356.88;5056653;28;20328;-72
2023/07/11 02:32:24;;;;;;;4.73;4.33;;;;;;;20.25;100.00;100360.41;5057321;28;20204;-73
2023/07/11 02:34:50;;;;;;;4.97;4.57;;;;;;;20.25;100.00;100355.16;5055232;28;20276;-73
2023/07/11 02:37:15;;;;;;;5.17;4.77;;;;;;;20.25;100.00;100352.53;5057574;28;20197;-73
2023/07/11 02:39:41;;;;;;;6.30;4.53;;;;;;;20.25;100.00;100338.53;5055550;28;20191;-73
2023/07/11 02:42:06;;;;;;;4.50;4.10;;;;;;;20.22;100.00;100343.91;5067674;28;20720;-74
2023/07/11 02:44:31;;;;;;;4.27;3.80;;;;;;;20.19;100.00;100347.56;5060693;28;20212;-73
2023/07/11 02:46:57;;;;;;;5.00;4.50;;;;;;;20.17;100.00;100343.31;5063432;28;20242;-72
2023/07/11 02:49:22;;;;;;;5.13;4.63;;;;;;;20.13;100.00;100337.34;5061159;28;20221;-72
2023/07/11 02:51:47;;;;;;;5.07;4.67;;;;;;;20.09;100.00;100341.91;5059076;28;20189;-72
2023/07/11 02:54:13;;;;;;;4.83;4.03;;;;;;;20.07;100.00;100340.28;5060882;28;20720;-73
2023/07/11 02:56:38;;;;;;;4.77;4.23;;;;;;;20.05;100.00;100339.50;5060211;28;20195;-73
2023/07/11 02:59:03;;;;;;;4.70;4.30;;;;;;;20.03;100.00;100336.09;5059287;28;20641;-73
2023/07/11 03:01:33;;;;;;;6.80;4.70;;;;;;;19.98;100.00;100331.06;5060239;28;20830;-72
2023/07/11 03:03:59;;;;;;;6.33;4.50;;;;;;;19.95;100.00;100336.44;5061165;28;20211;-74
2023/07/11 03:06:25;;;;;;;5.97;4.70;;;;;;;19.93;100.00;100323.41;5059785;28;20238;-74
2023/07/11 03:08:50;;;;;;;5.40;4.90;;;;;;;19.91;100.00;100327.00;5059162;28;20616;-73
2023/07/11 03:11:16;;;;;;;5.03;4.50;;;;;;;19.89;100.00;100324.47;5062086;28;20245;-73
2023/07/11 03:13:42;;;;;;;4.80;4.03;;;;;;;19.89;100.00;100326.25;5066741;28;20188;-74
2023/07/11 03:16:07;;;;;;;4.60;4.20;;;;;;;19.88;100.00;100327.19;5061072;28;20203;-73
2023/07/11 03:18:32;;;;;;;6.50;4.53;;;;;;;19.87;100.00;100315.81;5059957;28;20592;-73
2023/07/11 03:20:59;;;;;;;4.90;4.40;;;;;;;19.88;100.00;100319.28;5059619;28;20253;-73
2023/07/11 03:23:25;;;;;;;7.87;4.57;;;;;;;19.87;100.00;100313.19;5057145;28;20209;-74
2023/07/11 03:25:50;;;;;;;5.20;4.70;;;;;;;19.86;100.00;100307.97;5056061;28;20669;-74
2023/07/11 03:28:16;;;;;;;5.07;4.60;;;;;;;19.85;100.00;100301.84;5055943;28;20215;-73
2023/07/11 03:30:42;;;;;;;4.77;4.37;;;;;;;19.87;100.00;100310.56;5059279;28;20757;-73
2023/07/11 03:33:08;;;;;;;5.00;4.50;;;;;;;19.89;100.00;100306.06;5060800;28;20188;-73
2023/07/11 03:35:33;;;;;;;5.63;4.37;;;;;;;19.89;100.00;100311.34;5059979;28;20266;-73
2023/07/11 03:37:59;;;;;;;4.37;4.07;;;;;;;19.90;100.00;100301.66;5057768;28;20214;-73
2023/07/11 03:40:24;;;;;;;5.10;4.47;;;;;;;19.90;100.00;100302.53;5056125;28;20735;-73
2023/07/11 03:42:50;;;;;;;5.00;4.47;;;;;;;19.92;100.00;100297.19;5060326;28;20206;-74
2023/07/11 03:45:15;;;;;;;7.63;4.80;;;;;;;19.92;100.00;100299.81;5063823;28;20287;-73
2023/07/11 03:47:41;;;;;;;7.43;5.50;;;;;;;19.93;100.00;100298.91;5065818;28;20726;-73
2023/07/11 03:50:06;;;;;;;6.33;5.17;;;;;;;19.90;100.00;100297.28;5064939;28;20187;-74
2023/07/11 03:52:32;;;;;;;9.23;5.43;;;;;;;19.89;100.00;100297.38;5067233;28;20325;-73
2023/07/11 03:54:57;;;;;;;10.93;5.87;;;;;;;19.87;100.00;100300.03;5065945;28;20320;-73
2023/07/11 03:57:22;;;;;;;10.93;6.07;;;;;;;19.88;100.00;100293.88;5069325;28;20261;-73
2023/07/11 03:59:48;;;;;;;11.47;6.20;;;;;;;19.89;100.00;100284.22;5063004;28;20193;-72
2023/07/11 04:02:13;;;;;;;12.80;6.57;;;;;;;19.89;100.00;100295.56;5064298;28;20212;-73
2023/07/11 04:04:38;;;;;;;15.13;6.40;;;;;;;19.91;100.00;100292.88;5068108;28;20238;-73
2023/07/11 04:07:04;;;;;;;9.90;5.70;;;;;;;19.93;100.00;100294.50;5063607;28;20943;-73
2023/07/11 04:09:30;;;;;;;11.40;6.00;;;;;;;19.97;100.00;100296.97;5069934;28;20359;-72
2023/07/11 04:11:55;;;;;;;9.90;5.93;;;;;;;20.00;100.00;100288.94;5067123;28;20207;-73
2023/07/11 04:14:20;;;;;;;9.43;5.77;;;;;;;20.04;100.00;100298.38;5067746;28;20200;-73
2023/07/11 04:16:46;;;;;;;9.80;6.10;;;;;;;20.09;100.00;100291.16;5069609;28;20262;-72
2023/07/11 04:19:11;;;;;;;9.37;5.73;;;;;;;20.15;100.00;100287.38;5067136;28;20208;-73
2023/07/11 04:21:37;;;;;;;12.63;5.47;;;;;;;20.20;100.00;100288.84;5064747;28;20187;-73
2023/07/11 04:24:02;;;;;;;6.80;5.37;;;;;;;20.28;100.00;100293.72;5061788;28;20786;-73
2023/07/11 04:26:27;;;;;;;7.37;4.97;;;;;;;20.36;100.00;100294.16;5062813;28;20181;-73
2023/07/11 04:28:53;;;;;;;7.93;5.60;;;;;;;20.46;100.00;100297.19;5068351;28;20680;-73
2023/07/11 04:31:18;;;;;;;10.47;5.63;;;;;;;20.57;100.00;100299.28;5067373;28;20227;-73
2023/07/11 04:33:44;;;;;;;8.20;5.20;;;;;;;20.67;100.00;100304.94;5068150;28;20177;-74
2023/07/11 04:36:12;;;;;;;9.33;5.60;;;;;;;20.79;100.00;100306.97;5064722;28;20208;-73
2023/07/11 04:38:38;;;;;;;8.13;5.60;;;;;;;20.91;100.00;100308.09;5064821;28;20220;-73
2023/07/11 04:41:05;;;;;;;6.53;4.90;;;;;;;21.05;100.00;100304.75;5064246;28;20184;-73
2023/07/11 04:43:33;;;;;;;8.23;5.77;;;;;;;21.27;100.00;100307.06;5065400;28;20210;-73
2023/07/11 04:45:59;;;;;;;13.93;5.47;;;;;;;21.55;100.00;100305.59;5065029;28;20186;-73
2023/07/11 04:48:25;;;;;;;9.50;5.23;;;;;;;21.85;100.00;100309.28;5066633;28;20585;-74
2023/07/11 04:50:57;;;;;;;8.17;4.87;;;;;;;22.20;100.00;100311.72;5065232;28;20182;-74
2023/07/11 04:53:23;;;;;;;6.93;4.70;;;;;;;22.48;99.67;100305.69;5061189;28;20231;-74
2023/07/11 04:55:55;;;;;;;13.73;6.30;;;;;;;22.81;97.20;100307.28;5065556;28;20178;-74
2023/07/11 04:58:20;;;;;;;13.27;6.23;;;;;;;23.10;95.80;100312.56;5060841;28;20207;-74
2023/07/11 05:00:45;;;;;;;12.13;5.47;;;;;;;23.37;93.94;100311.00;5057000;28;20193;-73
2023/07/11 05:03:10;;;;;;;6.67;4.97;;;;;;;23.59;92.51;100305.22;5058180;28;20615;-75
2023/07/11 05:05:36;;;;;;;11.63;5.20;;;;;;;23.75;90.73;100287.44;5064154;28;20186;-74
2023/07/11 05:08:01;;;;;;;11.57;5.50;;;;;;;23.98;90.25;100292.22;5082121;28;20194;-74
2023/07/11 05:10:26;;;;;;;7.70;4.93;;;;;;;24.31;89.88;100291.75;5072238;28;20194;-74
2023/07/11 05:12:52;;;;;;;7.00;5.10;;;;;;;24.69;88.96;100289.28;5069029;28;20174;-74
2023/07/11 05:15:17;;;;;;;10.40;4.90;;;;;;;25.06;87.94;100281.47;5065878;28;20205;-74
2023/07/11 05:17:42;;;;;;;6.87;5.70;;;;;;;25.34;86.22;100282.16;5067838;28;20859;-74
2023/07/11 05:20:08;;;;;;;11.33;5.70;;;;;;;25.63;84.60;100282.75;5067872;28;20462;-74
2023/07/11 05:22:33;;;;;;;11.57;5.57;;;;;;;25.96;83.04;100278.59;5068124;28;20201;-75
2023/07/11 05:24:59;;;;;;;10.63;5.23;;;;;;;26.26;80.84;100271.97;5060742;28;20267;-74
2023/07/11 05:27:25;;;;;;;12.20;5.40;;;;;;;26.53;79.73;100272.66;5061676;28;20252;-75
2023/07/11 05:29:51;;;;;;;19.67;5.73;;;;;;;26.77;79.77;100268.09;5072736;28;20182;-75
2023/07/11 05:32:16;;;;;;;7.23;5.17;;;;;;;27.21;77.15;100270.91;5086151;28;20181;-74
2023/07/11 05:34:41;;;;;;;6.67;4.70;;;;;;;27.55;76.04;100272.69;5081399;28;20190;-74
2023/07/11 05:37:07;;;;;;;11.07;5.27;;;;;;;27.88;74.58;100267.38;5064484;28;20178;-73
2023/07/11 05:39:32;;;;;;;7.07;4.53;;;;;;;28.26;74.77;100274.88;5060944;28;20237;-73
2023/07/11 05:41:57;;;;;;;7.30;4.72;;;;;;;28.54;74.13;100274.34;5062297;28;21036;-73
2023/07/11 05:44:24;;;;;;;7.07;4.60;;;;;;;28.98;72.97;100274.16;5065291;28;20202;-74
2023/07/11 05:46:49;;;;;;;11.60;5.38;;;;;;;29.47;70.92;100267.19;5066644;28;20181;-74
2023/07/11 05:49:15;;;;;;;7.68;4.25;;;;;;;29.40;69.15;100271.41;5052323;28;20201;-74
2023/07/11 05:51:40;;;;;;;7.07;4.78;;;;;;;29.88;69.54;100260.91;5066059;28;20221;-74
2023/07/11 05:54:06;;;;;;;8.63;4.82;;;;;;;30.41;68.20;100268.50;5068274;28;20212;-75
2023/07/11 05:56:31;;;;;;;7.30;4.10;;;;;;;30.64;69.01;100260.16;5063552;28;20205;-75
2023/07/11 05:58:57;;;;;;;7.40;4.80;;;;;;;30.92;68.76;100252.22;5063845;28;20237;-75
2023/07/11 06:01:26;;;;;;;5.55;4.03;;;;;;;31.32;67.07;100255.53;5067475;28;20737;-75
2023/07/11 06:04:10;;;;;;;8.05;4.70;;;;;;;31.45;67.19;100257.84;5060029;28;20209;-74
2023/07/11 06:06:41;;;;;;;4.60;3.80;;;;;;;31.65;66.52;100260.41;5064966;28;20201;-74
2023/07/11 06:09:07;;;;;;;8.63;4.57;;;;;;;31.90;65.60;100250.78;5057312;28;20296;-74
2023/07/11 06:11:32;;;;;;;7.97;4.70;;;;;;;32.28;64.34;100245.25;5067070;28;20208;-73
2023/07/11 06:13:58;;;;;;;7.90;5.05;;;;;;;32.33;64.19;100251.81;5062396;28;20174;-76
2023/07/11 06:16:23;;;;;;;7.65;4.30;;;;;;;32.52;63.51;100245.41;5067488;28;20970;-74
2023/07/11 06:18:51;;;;;;;6.80;4.70;;;;;;;32.83;62.51;100249.44;5060478;28;20214;-74
2023/07/11 06:21:17;;;;;;;7.63;4.35;;;;;;;32.88;62.02;100244.44;5062419;28;20648;-75
2023/07/11 06:23:43;;;;;;;7.32;4.32;;;;;;;33.04;62.08;100234.78;5066654;28;20221;-75
2023/07/11 06:26:09;;;;;;;4.63;4.10;;;;;;;33.12;61.86;100246.38;5062872;28;20196;-75
2023/07/11 06:28:34;;;;;;;4.32;3.90;;;;;;;33.19;62.71;100241.19;5064284;28;20205;-75
2023/07/11 06:31:00;;;;;;;4.97;3.95;;;;;;;33.38;61.58;100244.63;5059286;28;20189;-76
2023/07/11 06:33:26;;;;;;;7.53;4.05;;;;;;;33.73;60.68;100240.00;5065648;28;20268;-74
2023/07/11 06:35:52;;;;;;;6.72;4.25;;;;;;;33.68;60.56;100243.16;5065030;28;20245;-74
2023/07/11 06:38:18;;;;;;;5.05;4.03;;;;;;;33.77;60.57;100240.50;5065587;28;20613;-75
2023/07/11 06:40:52;;;;;;;5.80;4.10;;;;;;;33.85;60.58;100238.66;5066533;28;20217;-75
2023/07/11 06:43:18;;;;;;;7.20;4.40;;;;;;;33.89;60.68;100236.50;5065576;28;20710;-76
2023/07/11 06:45:48;;;;;;;5.22;4.15;;;;;;;33.99;60.02;100236.34;5064167;28;20210;-74
2023/07/11 06:48:14;;;;;;;5.25;4.72;;;;;;;34.28;59.02;100237.63;5061638;28;20234;-74
2023/07/11 06:50:40;;;;;;;6.50;4.57;;;;;;;34.41;59.02;100242.50;5056734;28;20192;-75
2023/07/11 06:53:05;;;;;;;5.57;4.50;;;;;;;34.28;59.34;100232.28;5064437;28;20198;-74
2023/07/11 06:55:30;;;;;;;5.88;4.50;;;;;;;34.18;59.08;100232.44;5063146;28;20673;-75
2023/07/11 06:57:55;;;;;;;5.47;4.25;;;;;;;34.23;58.84;100226.56;5063392;28;20746;-74
2023/07/11 07:00:21;;;;;;;5.82;4.20;;;;;;;34.53;58.43;100225.03;5063558;28;20204;-74
2023/07/11 07:02:46;;;;;;;4.20;3.78;;;;;;;34.19;59.23;100232.25;5064666;28;20182;-74
2023/07/11 07:05:11;;;;;;;5.43;4.15;;;;;;;34.29;58.96;100223.22;5063066;28;20221;-74
2023/07/11 07:07:37;;;;;;;5.32;4.53;;;;;;;34.52;59.00;100220.66;5079388;28;20193;-74
2023/07/11 07:10:02;;;;;;;4.53;4.10;;;;;;;34.47;59.28;100220.31;5063926;28;20310;-74
2023/07/11 07:12:28;;;;;;;7.50;4.68;;;;;;;34.79;58.41;100216.69;5045205;28;20966;-74
2023/07/11 07:14:54;;;;;;;8.32;4.50;;;;;;;34.91;58.00;100213.63;5046361;28;20194;-74
2023/07/11 07:17:19;;;;;;;5.13;4.25;;;;;;;34.98;57.83;100219.16;5046798;28;20267;-75
2023/07/11 07:19:45;;;;;;;8.32;4.65;;;;;;;35.10;57.89;100221.25;5049218;28;20213;-75
2023/07/11 07:22:10;;;;;;;8.27;4.80;;;;;;;35.15;57.81;100212.69;5056040;28;20312;-73
2023/07/11 07:24:35;;;;;;;5.32;4.70;;;;;;;35.19;57.71;100219.38;5057189;28;20214;-74
2023/07/11 07:27:02;;;;;;;5.35;4.28;;;;;;;35.18;57.37;100216.88;5056045;28;20181;-74
2023/07/11 07:29:27;;;;;;;4.70;4.28;;;;;;;35.06;57.33;100213.72;5062252;28;20206;-75
2023/07/11 07:31:52;;;;;;;5.85;4.88;;;;;;;34.98;57.39;100219.16;5065453;28;20170;-74
2023/07/11 07:34:17;;;;;;;5.70;4.20;;;;;;;34.88;57.57;100217.47;5061599;28;20183;-75
2023/07/11 07:36:43;;;;;;;4.85;4.22;;;;;;;35.15;57.39;100215.38;5064447;28;20662;-75
2023/07/11 07:39:08;;;;;;;8.50;4.70;;;;;;;34.95;57.77;100213.13;5063371;28;20206;-75
2023/07/11 07:41:33;;;;;;;5.97;4.70;;;;;;;34.76;57.52;100213.50;5062821;28;20979;-75
2023/07/11 07:43:59;;;;;;;4.60;4.18;;;;;;;34.37;58.53;100207.06;5060278;28;20201;-76
2023/07/11 07:46:25;;;;;;;4.75;4.35;;;;;;;34.67;58.81;100199.25;5063886;28;20185;-74
2023/07/11 07:48:50;;;;;;;7.40;4.30;;;;;;;34.87;58.03;100202.38;5059070;28;20217;-74
2023/07/11 07:51:18;;;;;;;6.55;4.47;;;;;;;34.80;58.99;100198.72;5063792;28;20185;-75
2023/07/11 07:53:44;;;;;;;5.05;4.55;;;;;;;34.82;59.45;100202.06;5063896;28;20205;-75
2023/07/11 07:56:11;;;;;;;4.68;4.28;;;;;;;34.74;60.24;100202.09;5063575;28;20674;-73
2023/07/11 07:58:37;;;;;;;5.05;4.55;;;;;;;35.04;57.85;100205.00;5064165;28;20253;-75
2023/07/11 08:01:05;;;;;;;6.32;4.35;;;;;;;34.98;58.51;100201.16;5062951;28;20213;-75
2023/07/11 08:03:37;;;;;;;5.25;4.72;;;;;;;35.18;59.04;100196.19;5063548;28;20193;-74
2023/07/11 08:06:03;;;;;;;4.72;4.35;;;;;;;35.16;58.59;100192.00;5060928;28;20246;-75
2023/07/11 08:08:28;;;;;;;4.50;4.13;;;;;;;34.98;59.26;100193.09;5060560;28;20741;-74
2023/07/11 08:10:54;;;;;;;4.28;3.95;;;;;;;35.07;58.21;100192.06;5062586;28;20186;-75
2023/07/11 08:13:19;;;;;;;5.00;4.50;;;;;;;35.24;57.64;100183.91;5063416;28;20327;-75
2023/07/11 08:15:45;;;;;;;5.43;4.53;;;;;;;35.11;57.82;100181.78;5062089;28;20194;-74
2023/07/11 08:18:11;;;;;;;5.10;4.60;;;;;;;34.87;58.17;100180.84;5063696;28;20232;-75
2023/07/11 08:20:37;;;;;;;5.15;4.65;;;;;;;34.76;59.73;100176.72;5062967;28;20193;-74
2023/07/11 08:23:02;;;;;;;7.82;4.90;;;;;;;35.00;57.51;100179.50;5065615;28;20201;-75
2023/07/11 08:25:28;;;;;;;5.20;4.70;;;;;;;34.97;58.46;100177.16;5063288;28;20200;-75
2023/07/11 08:27:53;;;;;;;6.90;4.60;;;;;;;35.07;57.92;100173.25;5057268;28;20229;-74
2023/07/11 08:30:19;;;;;;;4.85;4.40;;;;;;;35.06;58.88;100168.03;5054215;28;20198;-75
2023/07/11 08:32:44;;;;;;;6.30;5.07;;;;;;;35.05;58.49;100169.03;5060527;28;20673;-75
2023/07/11 08:35:10;;;;;;;7.38;4.88;;;;;;;35.06;58.54;100165.31;5045652;28;20206;-75
2023/07/11 08:37:35;;;;;;;4.88;4.47;;;;;;;34.94;59.13;100164.91;5061928;28;20189;-75
2023/07/11 08:40:02;;;;;;;5.07;4.45;;;;;;;35.02;59.42;100164.03;5059571;28;20193;-74
2023/07/11 08:42:32;;;;;;;5.10;4.70;;;;;;;35.12;58.90;100153.03;5060727;28;20281;-76
2023/07/11 08:45:06;;;;;;;4.97;4.57;;;;;;;35.06;60.45;100158.13;5065872;28;20206;-76
2023/07/11 08:47:39;;;;;;;5.03;4.50;;;;;;;35.08;59.97;100149.84;5056015;28;20197;-76
2023/07/11 08:50:18;;;;;;;5.43;4.93;;;;;;;35.17;58.19;100150.66;5068615;28;20182;-76
2023/07/11 08:52:48;;;;;;;5.32;4.85;;;;;;;35.14;58.32;100138.41;5069290;28;21367;-76
2023/07/11 08:55:18;;;;;;;7.07;5.40;;;;;;;34.70;58.78;100139.78;5068580;28;20190;-76
2023/07/11 08:57:53;;;;;;;5.43;5.00;;;;;;;34.39;59.90;100137.06;5060787;28;20206;-76
2023/07/11 09:00:19;;;;;;;6.10;5.38;;;;;;;34.48;59.98;100126.16;5061109;28;20224;-75
2023/07/11 09:02:44;;;;;;;6.20;5.05;;;;;;;34.22;60.32;100123.69;5067269;28;20210;-76
2023/07/11 09:05:18;;;;;;;6.88;5.88;;;;;;;34.07;60.52;100120.03;5074778;28;20697;-75
2023/07/11 09:07:45;;;;;;;6.03;5.53;;;;;;;34.02;60.44;100126.75;5076783;28;20776;-76
2023/07/11 09:10:38;;;;;;;10.45;5.95;;;;;;;33.84;61.09;100107.28;5069027;28;20198;-75
2023/07/11 09:13:15;;;;;;;6.47;5.35;;;;;;;33.32;61.50;100111.16;5062323;28;20202;-76
2023/07/11 09:16:06;;;;;;;7.68;6.82;;;;;;;33.02;61.46;100105.44;5054602;28;20694;-76
2023/07/11 09:19:01;;;;;;;6.88;6.18;;;;;;;32.69;63.12;100101.66;5059843;28;20208;-76
2023/07/11 09:21:41;;;;;;;9.50;6.47;;;;;;;32.88;64.68;100098.91;5067825;28;20182;-75
2023/07/11 09:24:48;;;;;;;6.13;5.53;;;;;;;33.03;64.84;100091.88;5067507;28;20570;-74
2023/07/11 09:27:29;;;;;;;6.47;5.88;;;;;;;33.32;64.47;100087.88;5053189;28;20198;-75
2023/07/11 09:29:55;;;;;;;6.72;6.05;;;;;;;33.39;64.00;100091.59;5055385;28;20570;-75
2023/07/11 09:32:27;;;;;;;6.22;5.63;;;;;;;33.41;63.98;100089.56;5066976;28;20202;-75
2023/07/11 09:34:52;;;;;;;7.38;5.90;;;;;;;33.27;64.34;100082.16;5061418;28;20300;-73
2023/07/11 09:37:20;;;;;;;6.35;5.85;;;;;;;33.41;63.75;100084.22;5068042;28;20685;-76
2023/07/11 09:40:01;;;;;;;6.47;5.57;;;;;;;33.65;63.90;100081.66;5065169;28;20627;-76
2023/07/11 09:42:40;;;;;;;6.68;6.07;;;;;;;33.86;64.13;100084.66;5067827;28;20239;-75
2023/07/11 09:45:12;;;;;;;5.97;5.40;;;;;;;34.03;63.72;100065.84;5065588;28;20185;-76
2023/07/11 09:47:40;;;;;;;6.60;6.00;;;;;;;34.11;62.61;100081.09;5064944;28;20274;-75
2023/07/11 09:50:34;;;;;;;6.55;5.95;;;;;;;33.95;63.20;100077.47;5063625;28;20186;-74
2023/07/11 09:53:01;;;;;;;7.18;6.10;;;;;;;34.00;63.43;100067.03;5059962;28;20243;-74
2023/07/11 09:55:34;;;;;;;15.98;6.53;;;;;;;33.86;64.50;100065.88;5064853;28;20181;-74
2023/07/11 09:58:00;;;;;;;6.45;5.85;;;;;;;33.94;64.73;100065.03;5066604;28;20254;-74
2023/07/11 10:00:26;;;;;;;6.15;5.53;;;;;;;33.98;64.22;100065.53;5064521;28;20258;-74
2023/07/11 10:02:51;;;;;;;5.15;4.75;;;;;;;33.94;64.02;100065.03;5057666;28;20191;-74
2023/07/11 10:05:20;;;;;;;6.20;5.70;;;;;;;33.80;64.45;100061.19;5065210;28;20261;-75
2023/07/11 10:08:08;;;;;;;6.80;5.95;;;;;;;33.77;64.88;100064.19;5064983;28;20289;-74
2023/07/11 10:10:33;;;;;;;6.65;6.03;;;;;;;33.94;64.50;100057.00;5057682;28;20551;-74
2023/07/11 10:13:11;;;;;;;5.93;5.43;;;;;;;33.90;64.99;100058.34;5067751;28;20208;-74
2023/07/11 10:15:36;;;;;;;6.93;6.30;;;;;;;34.00;64.13;100058.97;5061506;28;20186;-74
2023/07/11 10:18:02;;;;;;;6.30;5.68;;;;;;;33.98;63.97;100049.44;5066175;28;20204;-75
2023/07/11 10:20:28;;;;;;;6.65;5.97;;;;;;;33.91;64.59;100045.75;5067889;28;20587;-74
2023/07/11 10:23:02;;;;;;;6.07;5.57;;;;;;;33.94;64.36;100045.41;5067373;28;20196;-75
2023/07/11 10:25:30;;;;;;;6.60;6.00;;;;;;;34.00;63.40;100048.22;5064619;28;20739;-74
2023/07/11 10:28:38;;;;;;;6.95;5.95;;;;;;;33.85;64.63;100039.19;5062171;28;20634;-74
2023/07/11 10:31:19;;;;;;;6.28;5.78;;;;;;;33.75;64.68;100039.38;5056222;28;20197;-74
2023/07/11 10:33:56;;;;;;;6.80;6.20;;;;;;;33.89;64.91;100035.19;5066049;28;20210;-75
2023/07/11 10:36:47;;;;;;;6.65;6.03;;;;;;;34.06;62.51;100025.22;5061732;28;20720;-73
2023/07/11 10:39:19;;;;;;;7.15;6.07;;;;;;;34.01;64.21;100023.06;5055367;28;20209;-74
2023/07/11 10:42:00;;;;;;;7.40;6.55;;;;;;;33.82;64.40;100018.91;5064283;28;20300;-74
2023/07/11 10:44:40;;;;;;;6.38;5.72;;;;;;;33.96;64.44;100021.91;5063916;28;20226;-74
2023/07/11 10:47:08;;;;;;;8.65;6.07;;;;;;;34.00;63.88;100020.56;5059139;28;20182;-74
2023/07/11 10:49:47;;;;;;;7.60;5.75;;;;;;;33.93;65.09;100016.88;5061646;28;20209;-74
2023/07/11 10:52:21;;;;;;;6.72;6.13;;;;;;;33.98;64.43;100012.66;5062685;28;20728;-74
2023/07/11 10:54:52;;;;;;;6.97;6.38;;;;;;;34.03;64.83;100009.47;5063859;28;20177;-75
2023/07/11 10:57:45;;;;;;;6.40;5.80;;;;;;;34.18;63.87;100013.09;5060196;28;20175;-74
2023/07/11 11:00:16;;;;;;;7.93;6.00;;;;;;;34.19;63.90;99997.81;5081793;28;20169;-74
2023/07/11 11:03:00;;;;;;;6.82;6.00;;;;;;;34.18;63.38;99996.13;5066946;28;20186;-74
2023/07/11 11:05:42;;;;;;;6.65;6.05;;;;;;;34.25;63.30;99997.13;5061657;28;20194;-75
2023/07/11 11:08:25;;;;;;;5.97;5.47;;;;;;;34.07;62.93;99983.94;5057419;28;20590;-74
2023/07/11 11:10:55;;;;;;;5.60;5.10;;;;;;;34.10;63.07;99980.91;5061096;28;20575;-75
2023/07/11 11:13:44;;;;;;;6.90;6.30;;;;;;;34.17;63.52;99962.25;5063158;28;20218;-75
2023/07/11 11:16:16;;;;;;;7.05;6.38;;;;;;;33.97;65.85;99964.53;5063947;28;20256;-74
2023/07/11 11:18:51;;;;;;;6.60;6.00;;;;;;;34.22;65.47;99956.34;5065266;28;20226;-74
2023/07/11 11:21:22;;;;;;;10.55;6.80;;;;;;;34.31;63.49;99952.59;5060868;28;20181;-75
2023/07/11 11:24:06;;;;;;;6.13;5.53;;;;;;;34.40;63.70;99943.47;5063466;28;20198;-74
2023/07/11 11:26:53;;;;;;;6.32;5.78;;;;;;;34.33;63.27;99945.22;5059306;28;20590;-75